createdAt,value
2022-09-20T00:03:09.046Z,20.51
2022-09-20T00:08:30.827Z,20.48
2022-09-20T00:13:56.201Z,20.48
2022-09-20T00:19:18.981Z,20.44
2022-09-20T00:24:40.613Z,20.46
2022-09-20T00:30:02.249Z,20.44
2022-09-20T00:35:23.979Z,20.43
2022-09-20T00:40:45.836Z,20.41
2022-09-20T00:46:20.998Z,20.41
2022-09-20T00:51:48.236Z,20.39
2022-09-20T00:57:09.903Z,20.39
2022-09-20T01:02:34.276Z,20.38
2022-09-20T01:07:56.962Z,20.36
2022-09-20T01:13:18.609Z,20.36
2022-09-20T01:18:42.066Z,20.35
2022-09-20T01:24:33.292Z,20.35
2022-09-20T01:30:12.550Z,20.34
2022-09-20T01:35:35.811Z,20.32
2022-09-20T01:41:06.574Z,20.30
2022-09-20T01:46:33.973Z,20.30
2022-09-20T01:52:11.020Z,20.31
2022-09-20T01:57:54.074Z,20.27
2022-09-20T02:03:49.627Z,20.26
2022-09-20T02:09:14.040Z,20.24
2022-09-20T02:15:01.762Z,20.22
2022-09-20T02:20:33.785Z,20.23
2022-09-20T02:26:32.140Z,20.24
2022-09-20T02:32:05.726Z,20.22
2022-09-20T02:37:54.009Z,20.21
2022-09-20T02:43:24.597Z,20.21
2022-09-20T02:48:59.032Z,20.19
2022-09-20T02:54:39.213Z,20.19
2022-09-20T03:00:18.542Z,20.20
2022-09-20T03:06:03.045Z,20.16
2022-09-20T03:11:36.645Z,20.16
2022-09-20T03:17:14.175Z,20.16
2022-09-20T03:22:50.074Z,20.15
2022-09-20T03:28:33.084Z,20.14
2022-09-20T03:34:23.949Z,20.15
2022-09-20T03:40:19.524Z,20.13
2022-09-20T03:46:02.236Z,20.12
2022-09-20T03:51:46.527Z,20.11
2022-09-20T03:57:26.215Z,20.10
2022-09-20T04:02:56.888Z,20.07
2022-09-20T04:08:55.684Z,20.09
2022-09-20T04:14:23.380Z,20.07
2022-09-20T04:19:52.393Z,20.07
2022-09-20T04:25:23.862Z,20.06
2022-09-20T04:30:46.693Z,20.06
2022-09-20T04:36:31.695Z,20.06
2022-09-20T04:42:22.124Z,20.06
2022-09-20T04:47:43.693Z,20.02
2022-09-20T04:53:43.449Z,20.02
2022-09-20T04:59:10.485Z,20.02
2022-09-20T05:05:05.376Z,20.02
2022-09-20T05:10:50.727Z,20.01
2022-09-20T05:16:36.528Z,20.01
2022-09-20T05:22:20.062Z,20.02
2022-09-20T05:28:00.217Z,20.19
2022-09-20T05:33:40.400Z,20.45
2022-09-20T05:39:23.239Z,20.77
2022-09-20T05:44:59.835Z,21.07
2022-09-20T05:50:55.736Z,21.31
2022-09-20T05:56:47.514Z,21.45
2022-09-20T06:02:28.336Z,21.49
2022-09-20T06:07:57.073Z,21.46
2022-09-20T06:13:41.138Z,21.39
2022-09-20T06:19:13.454Z,21.31
2022-09-20T06:24:56.730Z,21.22
2022-09-20T06:30:22.953Z,21.13
2022-09-20T06:36:21.348Z,21.06
2022-09-20T06:41:44.465Z,20.97
2022-09-20T06:47:08.694Z,20.89
2022-09-20T06:52:30.365Z,20.80
2022-09-20T06:57:52.064Z,20.74
2022-09-20T07:03:14.139Z,20.69
2022-09-20T07:08:36.510Z,20.66
2022-09-20T07:13:58.505Z,20.63
2022-09-20T07:19:20.665Z,20.58
2022-09-20T07:24:42.330Z,20.55
2022-09-20T07:30:04.799Z,20.53
2022-09-20T07:35:26.445Z,20.50
2022-09-20T07:40:56.953Z,20.48
2022-09-20T07:46:23.535Z,20.43
2022-09-20T07:51:45.350Z,20.42
2022-09-20T07:57:07.009Z,20.39
2022-09-20T08:02:28.684Z,20.37
2022-09-20T08:07:50.373Z,20.37
2022-09-20T08:19:01.564Z,20.36
2022-09-20T08:24:26.236Z,20.38
2022-09-20T08:29:47.871Z,20.38
2022-09-20T08:35:09.707Z,20.39
2022-09-20T08:40:32.125Z,20.39
2022-09-20T08:45:54.127Z,20.40
2022-09-20T08:51:22.734Z,20.41
2022-09-20T08:56:46.755Z,20.43
2022-09-20T09:02:17.525Z,20.46
2022-09-20T09:07:40.243Z,20.45
2022-09-20T09:13:03.784Z,20.46
2022-09-20T09:18:42.896Z,20.48
2022-09-20T09:24:09.596Z,20.48
2022-09-20T09:29:34.768Z,20.47
2022-09-20T09:34:57.466Z,20.43
2022-09-20T09:40:19.483Z,20.44
2022-09-20T09:45:41.217Z,20.43
2022-09-20T09:51:18.978Z,20.45
2022-09-20T09:56:59.722Z,20.44
2022-09-20T10:02:48.295Z,20.45
2022-09-20T10:08:35.422Z,20.46
2022-09-20T10:14:15.359Z,20.46
2022-09-20T10:20:12.191Z,20.48
2022-09-20T10:26:05.848Z,20.48
2022-09-20T10:31:45.080Z,20.50
2022-09-20T10:37:20.082Z,20.49
2022-09-20T10:43:06.353Z,20.51
2022-09-20T10:48:32.855Z,20.52
2022-09-20T10:54:35.234Z,20.54
2022-09-20T11:00:07.349Z,20.55
2022-09-20T11:05:35.113Z,20.55
2022-09-20T11:11:25.687Z,20.55
2022-09-20T11:16:55.762Z,20.56
2022-09-20T11:22:25.788Z,20.56
2022-09-20T11:27:58.342Z,20.58
2022-09-20T11:33:26.882Z,20.59
2022-09-20T11:39:03.787Z,20.62
2022-09-20T11:44:26.306Z,20.61
2022-09-20T11:50:03.662Z,20.65
2022-09-20T11:55:28.780Z,20.67
2022-09-20T12:00:54.609Z,20.66
2022-09-20T12:06:38.885Z,20.67
2022-09-20T12:12:20.739Z,20.72
2022-09-20T12:17:48.311Z,20.72
2022-09-20T12:23:40.915Z,20.72
2022-09-20T12:29:25.313Z,20.68
2022-09-20T12:34:47.265Z,20.65
2022-09-20T12:40:16.250Z,20.62
2022-09-20T12:45:38.291Z,20.57
2022-09-20T12:51:45.522Z,20.55
2022-09-20T12:57:32.280Z,20.52
2022-09-20T13:02:54.056Z,20.48
2022-09-20T13:08:20.484Z,20.47
2022-09-20T13:14:10.539Z,20.45
2022-09-20T13:19:53.078Z,20.44
2022-09-20T13:25:17.231Z,20.43
2022-09-20T13:30:42.036Z,20.42
2022-09-20T13:36:04.527Z,20.41
2022-09-20T13:41:29.390Z,20.39
2022-09-20T13:46:51.044Z,20.38
2022-09-20T13:52:54.464Z,20.37
2022-09-20T13:58:25.776Z,20.36
2022-09-20T14:03:48.171Z,20.35
2022-09-20T14:09:20.682Z,20.35
2022-09-20T14:14:42.525Z,20.33
2022-09-20T14:20:05.903Z,20.36
2022-09-20T14:25:28.055Z,20.36
2022-09-20T14:30:49.821Z,20.37
2022-09-20T14:36:16.453Z,20.45
2022-09-20T14:41:41.228Z,20.62
2022-09-20T14:47:17.146Z,20.77
2022-09-20T14:52:43.802Z,20.87
2022-09-20T14:58:13.883Z,20.97
2022-09-20T15:03:41.902Z,21.01
2022-09-20T15:09:03.826Z,21.01
2022-09-20T15:14:25.454Z,21.03
2022-09-20T15:19:48.545Z,21.00
2022-09-20T15:25:16.319Z,20.96
2022-09-20T15:30:38.007Z,20.93
2022-09-20T15:36:02.332Z,20.90
2022-09-20T15:41:26.967Z,20.87
2022-09-20T15:46:53.443Z,20.85
2022-09-20T15:52:15.237Z,20.84
2022-09-20T15:57:36.936Z,20.79
2022-09-20T16:02:59.117Z,20.74
2022-09-20T16:08:21.511Z,20.69
2022-09-20T16:13:43.269Z,20.65
2022-09-20T16:19:17.468Z,20.64
2022-09-20T16:24:39.393Z,20.61
2022-09-20T16:30:02.569Z,20.58
2022-09-20T16:35:24.228Z,20.58
2022-09-20T16:40:49.838Z,20.56
2022-09-20T16:46:12.110Z,20.52
2022-09-20T16:51:39.258Z,20.53
2022-09-20T16:57:01.225Z,20.56
2022-09-20T17:02:22.871Z,20.59
2022-09-20T17:07:44.809Z,20.65
2022-09-20T17:13:07.597Z,20.71
2022-09-20T17:18:29.322Z,20.73
2022-09-20T17:23:55.340Z,20.73
2022-09-20T17:29:18.777Z,20.78
2022-09-20T17:34:40.763Z,20.84
2022-09-20T17:40:02.967Z,20.87
2022-09-20T17:45:24.673Z,20.89
2022-09-20T17:50:56.746Z,20.93
2022-09-20T17:56:18.689Z,20.93
2022-09-20T18:01:40.678Z,20.92
2022-09-20T18:07:03.710Z,20.90
2022-09-20T18:12:25.470Z,20.95
2022-09-20T18:17:50.204Z,21.00
2022-09-20T18:23:14.392Z,21.06
2022-09-20T18:28:36.031Z,21.31
2022-09-20T18:34:00.120Z,21.61
2022-09-20T18:39:23.239Z,21.85
2022-09-20T18:44:46.172Z,21.98
2022-09-20T18:50:10.574Z,22.03
2022-09-20T18:55:34.189Z,22.03
2022-09-20T19:01:24.179Z,22.02
2022-09-20T19:07:13.669Z,21.99
2022-09-20T19:12:48.856Z,21.93
2022-09-20T19:18:24.305Z,21.88
2022-09-20T19:23:51.815Z,21.80
2022-09-20T19:29:22.630Z,21.75
2022-09-20T19:34:45.309Z,21.72
2022-09-20T19:40:51.966Z,21.73
2022-09-20T19:46:40.368Z,21.67
2022-09-20T19:52:02.805Z,21.60
2022-09-20T19:57:39.879Z,21.66
2022-09-20T20:03:01.884Z,21.69
2022-09-20T20:08:50.943Z,21.71
2022-09-20T20:14:36.225Z,21.76
2022-09-20T20:20:22.960Z,21.79
2022-09-20T20:26:03.066Z,21.79
2022-09-20T20:31:24.760Z,21.80
2022-09-20T20:36:47.315Z,21.84
2022-09-20T20:42:12.101Z,21.86
2022-09-20T20:47:34.467Z,21.83
2022-09-20T20:52:56.525Z,21.79
2022-09-20T20:58:18.180Z,21.73
2022-09-20T21:03:43.061Z,21.67
2022-09-20T21:09:05.930Z,21.60
2022-09-20T21:14:27.644Z,21.53
2022-09-20T21:19:50.128Z,21.47
2022-09-20T21:25:11.965Z,21.41
2022-09-20T21:30:33.620Z,21.35
2022-09-20T21:35:59.446Z,21.32
2022-09-20T21:41:26.675Z,21.27
2022-09-20T21:46:48.926Z,21.21
2022-09-20T21:52:11.262Z,21.14
2022-09-20T21:57:32.869Z,21.10
2022-09-20T22:02:59.021Z,21.04
2022-09-20T22:08:20.659Z,21.00
2022-09-20T22:13:43.975Z,20.99
2022-09-20T22:19:08.040Z,20.94
2022-09-20T22:24:30.329Z,20.89
2022-09-20T22:29:52.740Z,20.87
2022-09-20T22:35:14.629Z,20.84
2022-09-20T22:40:36.500Z,20.82
2022-09-20T22:46:06.677Z,20.81
2022-09-20T22:51:31.597Z,20.77
2022-09-20T22:56:53.491Z,20.75
2022-09-20T23:02:15.265Z,20.74
2022-09-20T23:07:37.214Z,20.71
2022-09-20T23:12:59.376Z,20.70
2022-09-20T23:18:21.150Z,20.68
2022-09-20T23:23:43.744Z,20.68
2022-09-20T23:29:16.130Z,20.68
2022-09-20T23:34:37.883Z,20.65
2022-09-20T23:39:59.695Z,20.63
2022-09-20T23:45:21.544Z,20.61
2022-09-20T23:50:43.552Z,20.59
2022-09-20T23:56:09.383Z,20.57
